Terminal Aerodrome Forecast
Issued by NWS Cleveland, OH

Home | Current Version | Previous Version | Graphics & Text | Print | Product List | Glossary Off
Versions: 1 2 3 4 5 6 7 8 9 10 11 12 13 14 15 16 17 18 19 20 21 22

000
FTUS41 KCLE 211900 AAA
TAFTOL
TAF AMD
KTOL 211939Z 2120/2218 23008KT P6SM VCSH BKN040 BKN120
     FM220200 23005KT 6SM BR VCTS BKN035CB OVC080
      TEMPO 2208/2212 1SM +TSRA BR BKN015CB OVC025
     FM221200 24007KT 6SM BR VCSH BKN030=

USA.gov is the U.S. government's official web portal to all federal, state and local government web resources and services.